createdAt,value
2022-09-26T00:00:17.037Z,100775.53
2022-09-26T00:02:44.964Z,100778.22
2022-09-26T00:05:11.646Z,100788.06
2022-09-26T00:07:38.164Z,100781.09
2022-09-26T00:10:05.469Z,100774.00
2022-09-26T00:12:31.973Z,100765.50
2022-09-26T00:14:58.509Z,100764.84
2022-09-26T00:17:25.068Z,100761.59
2022-09-26T00:19:51.560Z,100762.78
2022-09-26T00:22:18.033Z,100762.22
2022-09-26T00:24:44.544Z,100756.63
2022-09-26T00:27:11.384Z,100756.56
2022-09-26T00:29:38.771Z,100762.59
2022-09-26T00:32:05.286Z,100756.78
2022-09-26T00:34:32.069Z,100754.41
2022-09-26T00:36:58.621Z,100750.34
2022-09-26T00:39:25.145Z,100749.50
2022-09-26T00:41:51.727Z,100748.31
2022-09-26T00:44:35.253Z,100737.19
2022-09-26T00:47:02.096Z,100736.88
2022-09-26T00:49:35.528Z,100734.03
2022-09-26T00:52:10.249Z,100727.47
2022-09-26T00:54:39.021Z,100722.41
2022-09-26T00:57:12.215Z,100720.59
2022-09-26T00:59:49.439Z,100711.94
2022-09-26T01:02:16.736Z,100716.81
2022-09-26T01:04:44.949Z,100698.22
2022-09-26T01:07:18.622Z,100686.53
2022-09-26T01:09:45.148Z,100685.69
2022-09-26T01:12:12.193Z,100680.44
2022-09-26T01:14:40.565Z,100685.84
2022-09-26T01:17:07.756Z,100673.03
2022-09-26T01:19:34.287Z,100675.72
2022-09-26T01:22:34.314Z,100679.75
2022-09-26T01:25:19.139Z,100676.00
2022-09-26T01:28:15.802Z,100680.03
2022-09-26T01:30:54.386Z,100670.25
2022-09-26T01:33:36.250Z,100673.63
2022-09-26T01:36:08.620Z,100674.13
2022-09-26T01:39:15.194Z,100674.69
2022-09-26T01:42:34.477Z,100669.63
2022-09-26T01:45:07.904Z,100665.44
2022-09-26T01:47:43.147Z,100668.84
2022-09-26T01:50:16.309Z,100678.81
2022-09-26T01:52:53.823Z,100678.81
2022-09-26T01:55:28.519Z,100669.19
2022-09-26T01:58:18.329Z,100654.09
2022-09-26T02:00:47.230Z,100664.56
2022-09-26T02:03:20.586Z,100662.34
2022-09-26T02:05:52.553Z,100659.44
2022-09-26T02:08:25.131Z,100661.75
2022-09-26T02:11:02.081Z,100651.28
2022-09-26T02:13:36.055Z,100642.63
2022-09-26T02:16:09.312Z,100653.59
2022-09-26T02:18:41.417Z,100645.66
2022-09-26T02:21:21.516Z,100645.09
2022-09-26T02:23:49.184Z,100643.56
2022-09-26T02:26:15.796Z,100642.00
2022-09-26T02:28:42.584Z,100650.09
2022-09-26T02:31:09.865Z,100631.53
2022-09-26T02:33:37.707Z,100637.06
2022-09-26T02:36:10.195Z,100634.53
2022-09-26T02:38:37.805Z,100637.91
2022-09-26T02:41:29.620Z,100630.50
2022-09-26T02:44:15.076Z,100626.13
2022-09-26T02:46:54.580Z,100624.09
2022-09-26T02:49:36.477Z,100622.09
2022-09-26T02:52:29.206Z,100629.50
2022-09-26T02:55:05.044Z,100623.78
2022-09-26T02:57:44.944Z,100622.94
2022-09-26T03:00:26.131Z,100616.53
2022-09-26T03:03:03.514Z,100615.53
2022-09-26T03:05:30.740Z,100609.28
2022-09-26T03:08:08.867Z,100619.75
2022-09-26T03:10:36.453Z,100614.09
2022-09-26T03:13:13.686Z,100609.38
2022-09-26T03:15:42.103Z,100608.69
2022-09-26T03:18:13.391Z,100605.28
2022-09-26T03:20:40.913Z,100595.44
2022-09-26T03:23:07.537Z,100588.53
2022-09-26T03:25:34.123Z,100590.53
2022-09-26T03:28:02.314Z,100606.88
2022-09-26T03:30:32.165Z,100605.34
2022-09-26T03:32:58.670Z,100593.50
2022-09-26T03:35:25.168Z,100586.72
2022-09-26T03:37:51.701Z,100587.03
2022-09-26T03:40:18.433Z,100591.91
2022-09-26T03:42:46.816Z,100589.22
2022-09-26T03:45:13.340Z,100588.34
2022-09-26T03:47:40.043Z,100587.22
2022-09-26T03:50:07.107Z,100593.44
2022-09-26T03:52:33.647Z,100591.59
2022-09-26T03:55:00.380Z,100596.69
2022-09-26T03:57:26.924Z,100601.22
2022-09-26T03:59:55.197Z,100592.44
2022-09-26T04:02:22.669Z,100586.19
2022-09-26T04:04:49.322Z,100587.22
2022-09-26T04:07:15.874Z,100589.72
2022-09-26T04:09:42.372Z,100581.47
2022-09-26T04:12:08.944Z,100586.72
2022-09-26T04:14:35.698Z,100582.00
2022-09-26T04:17:02.182Z,100575.59
2022-09-26T04:19:28.678Z,100578.97
2022-09-26T04:21:55.255Z,100569.91
2022-09-26T04:24:21.811Z,100576.13
2022-09-26T04:26:48.454Z,100573.28
2022-09-26T04:29:15.484Z,100575.81
2022-09-26T04:31:42.317Z,100574.81
2022-09-26T04:34:10.887Z,100583.59
2022-09-26T04:36:38.194Z,100588.31
2022-09-26T04:39:05.178Z,100586.09
2022-09-26T04:41:32.308Z,100573.59
2022-09-26T04:43:59.955Z,100575.94
2022-09-26T04:46:31.018Z,100560.03
2022-09-26T04:48:59.218Z,100557.81
2022-09-26T04:51:27.517Z,100545.63
2022-09-26T04:53:54.112Z,100556.75
2022-09-26T04:56:22.323Z,100547.97
2022-09-26T04:58:49.076Z,100563.47
2022-09-26T05:01:20.440Z,100563.47
2022-09-26T05:03:47.144Z,100568.19
2022-09-26T05:06:15.439Z,100569.34
2022-09-26T05:08:44.630Z,100564.41
2022-09-26T05:11:11.218Z,100564.03
2022-09-26T05:13:38.913Z,100560.66
2022-09-26T05:16:08.852Z,100558.94
2022-09-26T05:18:36.543Z,100560.66
2022-09-26T05:21:03.757Z,100556.22
2022-09-26T05:23:48.858Z,100556.22
2022-09-26T05:26:28.007Z,100545.28
2022-09-26T05:29:06.888Z,100547.00
2022-09-26T05:31:37.471Z,100547.00
2022-09-26T05:34:05.405Z,100549.69
2022-09-26T05:36:32.001Z,100555.94
2022-09-26T05:38:58.660Z,100551.22
2022-09-26T05:41:29.460Z,100535.03
2022-09-26T05:43:56.449Z,100545.00
2022-09-26T05:46:23.305Z,100542.28
2022-09-26T05:48:53.036Z,100539.34
2022-09-26T05:51:21.154Z,100540.69
2022-09-26T05:53:49.380Z,100538.31
2022-09-26T05:56:19.718Z,100546.53
2022-09-26T05:58:46.642Z,100548.41
2022-09-26T06:01:15.698Z,100560.91
2022-09-26T06:03:45.895Z,100557.88
2022-09-26T06:06:14.809Z,100555.19
2022-09-26T06:08:41.854Z,100561.25
2022-09-26T06:11:14.607Z,100555.53
2022-09-26T06:13:45.585Z,100557.25
2022-09-26T06:16:20.928Z,100554.09
2022-09-26T06:18:49.172Z,100556.47
2022-09-26T06:21:17.167Z,100544.19
2022-09-26T06:23:44.373Z,100548.28
2022-09-26T06:26:22.843Z,100544.59
2022-09-26T06:28:58.116Z,100549.97
2022-09-26T06:31:25.587Z,100553.19
2022-09-26T06:33:53.420Z,100557.91
2022-09-26T06:36:21.868Z,100553.38
2022-09-26T06:38:49.065Z,100555.88
2022-09-26T06:41:16.446Z,100560.16
2022-09-26T06:43:45.311Z,100552.56
2022-09-26T06:46:13.076Z,100555.25
2022-09-26T06:48:39.591Z,100565.22
2022-09-26T06:51:06.616Z,100561.00
2022-09-26T06:53:35.104Z,100560.16
2022-09-26T06:56:02.099Z,100568.41
2022-09-26T06:58:28.746Z,100567.22
2022-09-26T07:00:56.634Z,100564.38
2022-09-26T07:03:26.650Z,100570.13
2022-09-26T07:05:56.902Z,100568.81
2022-09-26T07:08:43.263Z,100561.59
2022-09-26T07:11:32.741Z,100556.34
2022-09-26T07:14:00.231Z,100561.41
2022-09-26T07:16:27.199Z,100558.91
2022-09-26T07:18:54.747Z,100555.97
2022-09-26T07:21:21.297Z,100556.09
2022-09-26T07:23:47.818Z,100553.44
2022-09-26T07:26:14.340Z,100553.84
2022-09-26T07:28:40.834Z,100542.56
2022-09-26T07:31:07.801Z,100552.06
2022-09-26T07:33:34.366Z,100557.00
2022-09-26T07:36:05.276Z,100562.75
2022-09-26T07:38:32.308Z,100552.66
2022-09-26T07:41:00.836Z,100548.28
2022-09-26T07:44:04.168Z,100554.72
2022-09-26T07:46:33.294Z,100552.19
2022-09-26T07:49:18.492Z,100548.13
2022-09-26T07:51:46.081Z,100542.84
2022-09-26T07:54:12.758Z,100542.47
2022-09-26T07:56:40.384Z,100546.69
2022-09-26T07:59:06.866Z,100551.56
2022-09-26T08:01:33.429Z,100555.13
2022-09-26T08:04:00.233Z,100550.50
2022-09-26T08:06:27.686Z,100558.63
2022-09-26T08:08:55.387Z,100558.56
2022-09-26T08:11:22.444Z,100557.69
2022-09-26T08:13:49.973Z,100552.38
2022-09-26T08:16:22.999Z,100553.00
2022-09-26T08:18:50.457Z,100550.25
2022-09-26T08:21:17.949Z,100551.56
2022-09-26T08:23:45.220Z,100547.75
2022-09-26T08:26:12.137Z,100543.13
2022-09-26T08:28:39.056Z,100545.97
2022-09-26T08:31:06.631Z,100545.03
2022-09-26T08:33:38.860Z,100536.50
2022-09-26T08:36:11.098Z,100539.97
2022-09-26T08:38:38.276Z,100541.78
2022-09-26T08:41:32.471Z,100540.50
2022-09-26T08:44:13.148Z,100542.09
2022-09-26T08:47:01.317Z,100527.41
2022-09-26T08:49:39.797Z,100526.13
2022-09-26T08:52:24.031Z,100536.22
2022-09-26T08:54:51.650Z,100530.16
2022-09-26T08:57:29.626Z,100535.13
2022-09-26T08:59:56.196Z,100542.78
2022-09-26T09:02:45.524Z,100538.41
2022-09-26T09:05:39.461Z,100538.19
2022-09-26T09:08:12.968Z,100536.34
2022-09-26T09:10:39.445Z,100533.91
2022-09-26T09:13:05.944Z,100533.81
2022-09-26T09:15:44.123Z,100533.72
2022-09-26T09:18:18.787Z,100528.75
2022-09-26T09:20:57.317Z,100525.81
2022-09-26T09:23:31.597Z,100527.34
2022-09-26T09:29:52.678Z,100509.88
2022-09-26T09:32:22.331Z,100511.66
2022-09-26T09:34:53.636Z,100512.09
2022-09-26T09:37:26.917Z,100508.81
2022-09-26T09:39:53.780Z,100516.22
2022-09-26T09:42:33.317Z,100514.44
2022-09-26T09:44:59.834Z,100511.53
2022-09-26T09:47:29.076Z,100507.38
2022-09-26T09:49:57.217Z,100510.38
2022-09-26T09:52:29.791Z,100511.28
2022-09-26T09:55:00.041Z,100506.31
2022-09-26T09:57:42.772Z,100501.41
2022-09-26T10:00:19.506Z,100507.75
2022-09-26T10:03:02.279Z,100498.38
2022-09-26T10:05:46.772Z,100490.38
2022-09-26T10:08:17.485Z,100491.03
2022-09-26T10:10:55.217Z,100491.09
2022-09-26T10:13:24.052Z,100495.56
2022-09-26T10:16:17.039Z,100483.63
2022-09-26T10:19:02.343Z,100485.84
2022-09-26T10:21:35.525Z,100486.78
2022-09-26T10:24:04.856Z,100487.31
2022-09-26T10:26:35.274Z,100480.66
2022-09-26T10:29:08.119Z,100477.38
2022-09-26T10:31:42.696Z,100478.06
2022-09-26T10:34:25.641Z,100471.63
2022-09-26T10:36:52.941Z,100477.50
2022-09-26T10:39:48.561Z,100475.41
2022-09-26T10:42:18.979Z,100462.84
2022-09-26T10:44:46.368Z,100462.84
2022-09-26T10:47:16.686Z,100464.94
2022-09-26T10:50:03.506Z,100464.34
2022-09-26T10:52:32.586Z,100463.72
2022-09-26T10:55:05.027Z,100462.28
2022-09-26T10:57:46.816Z,100458.09
2022-09-26T11:00:24.396Z,100454.97
2022-09-26T11:02:54.736Z,100459.00
2022-09-26T11:05:40.138Z,100455.66
2022-09-26T11:08:07.057Z,100453.78
2022-09-26T11:10:34.380Z,100451.88
2022-09-26T11:13:03.591Z,100450.03
2022-09-26T11:15:30.168Z,100452.53
2022-09-26T11:17:57.160Z,100443.75
2022-09-26T11:20:41.969Z,100442.91
2022-09-26T11:23:35.073Z,100442.50
2022-09-26T11:26:16.342Z,100439.78
2022-09-26T11:28:52.136Z,100439.13
2022-09-26T11:31:27.767Z,100432.00
2022-09-26T11:33:58.998Z,100433.88
2022-09-26T11:36:39.629Z,100428.66
2022-09-26T11:39:17.219Z,100429.50
2022-09-26T11:42:06.469Z,100429.25
2022-09-26T11:44:48.795Z,100427.41
2022-09-26T11:47:46.552Z,100415.63
2022-09-26T11:50:31.301Z,100416.69
2022-09-26T11:53:28.439Z,100412.06
2022-09-26T11:56:01.515Z,100408.50
2022-09-26T11:58:37.581Z,100411.88
2022-09-26T12:01:38.868Z,100402.22
2022-09-26T12:04:45.315Z,100394.22
2022-09-26T12:07:21.260Z,100388.34
2022-09-26T12:10:12.305Z,100382.06
2022-09-26T12:12:43.017Z,100380.38
2022-09-26T12:15:33.741Z,100378.69
2022-09-26T12:18:34.327Z,100369.69
2022-09-26T12:21:39.124Z,100361.50
2022-09-26T12:24:13.139Z,100366.53
2022-09-26T12:26:58.627Z,100367.16
2022-09-26T12:29:49.206Z,100355.22
2022-09-26T12:32:40.131Z,100355.41
2022-09-26T12:35:15.859Z,100349.56
2022-09-26T12:38:18.202Z,100350.59
2022-09-26T12:40:55.678Z,100339.03
2022-09-26T12:43:31.852Z,100336.75
2022-09-26T12:46:23.084Z,100328.75
2022-09-26T12:49:17.383Z,100325.19
2022-09-26T12:51:47.234Z,100325.19
2022-09-26T12:54:44.196Z,100319.94
2022-09-26T12:57:24.267Z,100314.06
2022-09-26T12:59:58.223Z,100309.38
2022-09-26T13:02:48.822Z,100304.75
2022-09-26T13:05:34.301Z,100306.44
2022-09-26T13:08:21.118Z,100299.50
2022-09-26T13:11:06.378Z,100304.31
2022-09-26T13:13:51.948Z,100307.47
2022-09-26T13:16:50.581Z,100309.56
2022-09-26T13:19:34.801Z,100316.03
2022-09-26T13:22:04.437Z,100311.84
2022-09-26T13:24:40.962Z,100310.19
2022-09-26T13:27:21.159Z,100307.47
2022-09-26T13:29:57.837Z,100302.19
2022-09-26T13:32:35.537Z,100297.56
2022-09-26T13:35:14.706Z,100290.84
2022-09-26T13:38:09.394Z,100293.38
2022-09-26T13:40:44.210Z,100291.03
2022-09-26T13:43:25.695Z,100285.81
2022-09-26T13:46:01.365Z,100280.34
2022-09-26T13:48:41.580Z,100286.19
2022-09-26T13:51:18.406Z,100282.84
2022-09-26T13:53:54.080Z,100279.47
2022-09-26T13:56:36.231Z,100280.72
2022-09-26T13:59:11.804Z,100280.09
2022-09-26T14:01:42.071Z,100273.38
2022-09-26T14:04:34.247Z,100273.56
2022-09-26T14:07:26.763Z,100276.47
2022-09-26T14:09:59.285Z,100270.63
2022-09-26T14:12:53.703Z,100271.88
2022-09-26T14:15:28.839Z,100271.25
2022-09-26T14:18:13.581Z,100270.19
2022-09-26T14:20:56.186Z,100267.66
2022-09-26T14:23:40.915Z,100267.84
2022-09-26T14:26:21.182Z,100261.13
2022-09-26T14:28:54.491Z,100252.31
2022-09-26T14:31:37.087Z,100251.03
2022-09-26T14:34:19.439Z,100249.97
2022-09-26T14:36:46.913Z,100251.22
2022-09-26T14:39:36.886Z,100248.88
2022-09-26T14:42:08.526Z,100246.75
2022-09-26T14:44:37.332Z,100247.38
2022-09-26T14:47:06.952Z,100248.63
2022-09-26T14:49:33.517Z,100259.91
2022-09-26T14:52:01.610Z,100254.69
2022-09-26T14:54:37.506Z,100252.16
2022-09-26T14:57:07.948Z,100249.81
2022-09-26T14:59:34.398Z,100241.88
2022-09-26T15:02:25.832Z,100245.63
2022-09-26T15:05:04.333Z,100247.50
2022-09-26T15:07:39.110Z,100241.59
2022-09-26T15:10:40.081Z,100236.78
2022-09-26T15:13:19.433Z,100238.03
2022-09-26T15:16:13.184Z,100239.47
2022-09-26T15:18:50.093Z,100239.00
2022-09-26T15:21:26.521Z,100242.13
2022-09-26T15:23:56.172Z,100229.56
2022-09-26T15:26:28.376Z,100234.16
2022-09-26T15:28:57.890Z,100228.72
2022-09-26T15:31:47.109Z,100232.47
2022-09-26T15:34:17.928Z,100231.00
2022-09-26T15:36:48.529Z,100231.59
2022-09-26T15:39:31.247Z,100226.91
2022-09-26T15:42:25.120Z,100228.53
2022-09-26T15:45:01.664Z,100224.34
2022-09-26T15:47:32.202Z,100234.59
2022-09-26T15:50:14.311Z,100236.47
2022-09-26T15:52:46.806Z,100242.75
2022-09-26T15:55:23.834Z,100240.22
2022-09-26T15:57:55.089Z,100234.78
2022-09-26T16:00:24.020Z,100233.94
2022-09-26T16:02:53.097Z,100232.28
2022-09-26T16:05:22.872Z,100241.91
2022-09-26T16:07:52.319Z,100234.78
2022-09-26T16:10:30.055Z,100234.59
2022-09-26T16:13:01.477Z,100238.34
2022-09-26T16:15:33.674Z,100231.41
2022-09-26T16:18:06.089Z,100235.19
2022-09-26T16:20:33.304Z,100236.00
2022-09-26T16:23:04.913Z,100234.34
2022-09-26T16:25:52.386Z,100231.63
2022-09-26T16:28:22.856Z,100232.88
2022-09-26T16:30:58.894Z,100237.44
2022-09-26T16:33:27.519Z,100234.31
2022-09-26T16:35:54.830Z,100234.31
2022-09-26T16:38:33.956Z,100235.50
2022-09-26T16:41:09.828Z,100227.75
2022-09-26T16:43:39.036Z,100227.31
2022-09-26T16:46:10.133Z,100234.63
2022-09-26T16:48:44.507Z,100231.25
2022-09-26T16:51:25.236Z,100230.44
2022-09-26T16:53:59.905Z,100224.53
2022-09-26T16:56:28.538Z,100233.75
2022-09-26T16:59:02.989Z,100227.06
2022-09-26T17:01:50.981Z,100230.63
2022-09-26T17:04:22.995Z,100228.72
2022-09-26T17:06:50.379Z,100222.47
2022-09-26T17:09:22.136Z,100226.84
2022-09-26T17:11:53.654Z,100229.56
2022-09-26T17:14:22.988Z,100228.31
2022-09-26T17:16:55.138Z,100235.41
2022-09-26T17:19:25.138Z,100234.34
2022-09-26T17:21:54.441Z,100226.19
2022-09-26T17:24:26.080Z,100225.38
2022-09-26T17:26:59.305Z,100224.72
2022-09-26T17:29:35.158Z,100225.38
2022-09-26T17:32:09.667Z,100220.75
2022-09-26T17:34:39.280Z,100214.31
2022-09-26T17:37:08.038Z,100216.19
2022-09-26T17:39:36.624Z,100213.25
2022-09-26T17:42:03.586Z,100206.97
2022-09-26T17:44:32.252Z,100209.88
2022-09-26T17:47:00.164Z,100204.44
2022-09-26T17:49:31.839Z,100203.84
2022-09-26T17:52:02.340Z,100199.84
2022-09-26T17:54:37.516Z,100196.47
2022-09-26T17:57:09.781Z,100188.69
2022-09-26T17:59:43.902Z,100185.31
2022-09-26T18:02:32.153Z,100189.28
2022-09-26T18:05:05.318Z,100201.38
2022-09-26T18:07:39.123Z,100193.81
2022-09-26T18:10:08.077Z,100204.25
2022-09-26T18:12:37.142Z,100203.59
2022-09-26T18:15:05.283Z,100202.94
2022-09-26T18:17:31.892Z,100204.63
2022-09-26T18:19:58.419Z,100199.19
2022-09-26T18:22:33.083Z,100212.75
2022-09-26T18:25:07.042Z,100201.25
2022-09-26T18:27:39.658Z,100195.38
2022-09-26T18:30:07.700Z,100197.81
2022-09-26T18:32:36.762Z,100188.19
2022-09-26T18:35:06.564Z,100194.66
2022-09-26T18:37:33.829Z,100186.88
2022-09-26T18:40:04.106Z,100193.53
2022-09-26T18:42:32.974Z,100185.97
2022-09-26T18:45:05.921Z,100189.88
2022-09-26T18:47:37.401Z,100190.28
2022-09-26T18:50:05.601Z,100187.13
2022-09-26T18:52:33.180Z,100183.75
2022-09-26T18:55:20.524Z,100182.91
2022-09-26T18:58:06.842Z,100182.91
2022-09-26T19:00:36.250Z,100174.94
2022-09-26T19:03:06.316Z,100177.00
2022-09-26T19:05:34.334Z,100179.53
2022-09-26T19:08:02.730Z,100182.44
2022-09-26T19:10:29.605Z,100182.19
2022-09-26T19:12:56.777Z,100188.41
2022-09-26T19:15:26.358Z,100179.72
2022-09-26T19:17:53.674Z,100189.66
2022-09-26T19:20:21.592Z,100187.50
2022-09-26T19:22:52.150Z,100189.75
2022-09-26T19:25:19.867Z,100194.06
2022-09-26T19:27:49.703Z,100194.81
2022-09-26T19:30:23.229Z,100200.81
2022-09-26T19:32:53.683Z,100198.03
2022-09-26T19:35:30.423Z,100200.63
2022-09-26T19:37:59.802Z,100191.53
2022-09-26T19:40:27.096Z,100188.56
2022-09-26T19:42:55.119Z,100189.94
2022-09-26T19:45:23.698Z,100192.00
2022-09-26T19:47:52.542Z,100195.56
2022-09-26T19:50:22.604Z,100188.47
2022-09-26T19:52:52.225Z,100184.22
2022-09-26T19:55:24.277Z,100182.56
2022-09-26T19:57:54.611Z,100180.88
2022-09-26T20:00:22.360Z,100174.78
2022-09-26T20:02:51.852Z,100176.66
2022-09-26T20:05:26.197Z,100173.69
2022-09-26T20:07:55.731Z,100177.97
2022-09-26T20:10:30.039Z,100181.91
2022-09-26T20:12:57.667Z,100181.03
2022-09-26T20:15:24.738Z,100181.25
2022-09-26T20:17:51.500Z,100178.59
2022-09-26T20:20:23.704Z,100175.81
2022-09-26T20:22:51.773Z,100166.69
2022-09-26T20:25:29.171Z,100169.50
2022-09-26T20:27:57.564Z,100160.41
2022-09-26T20:30:44.757Z,100160.78
2022-09-26T20:33:13.543Z,100157.09
2022-09-26T20:35:47.037Z,100161.00
2022-09-26T20:38:33.731Z,100160.53
2022-09-26T20:41:08.135Z,100147.06
2022-09-26T20:43:41.431Z,100149.09
2022-09-26T20:46:10.664Z,100143.03
2022-09-26T20:48:39.289Z,100141.34
2022-09-26T20:51:09.952Z,100141.69
2022-09-26T20:53:37.154Z,100132.56
2022-09-26T20:56:05.698Z,100131.53
2022-09-26T20:58:32.470Z,100128.81
2022-09-26T21:01:00.668Z,100114.28
2022-09-26T21:03:28.285Z,100119.69
2022-09-26T21:05:55.405Z,100113.88
2022-09-26T21:08:27.646Z,100114.56
2022-09-26T21:10:58.139Z,100111.84
2022-09-26T21:13:25.232Z,100116.59
2022-09-26T21:15:54.697Z,100112.41
2022-09-26T21:18:28.715Z,100106.88
2022-09-26T21:20:59.987Z,100106.94
2022-09-26T21:23:26.731Z,100106.44
2022-09-26T21:25:53.826Z,100101.25
2022-09-26T21:28:28.209Z,100101.25
2022-09-26T21:31:00.780Z,100106.16
2022-09-26T21:33:28.130Z,100108.03
2022-09-26T21:35:55.098Z,100104.66
2022-09-26T21:38:24.495Z,100104.34
2022-09-26T21:40:54.470Z,100087.44
2022-09-26T21:43:25.225Z,100081.38
2022-09-26T21:45:52.964Z,100080.53
2022-09-26T21:48:21.774Z,100075.78
2022-09-26T21:50:58.092Z,100076.63
2022-09-26T21:53:39.049Z,100073.91
2022-09-26T21:56:12.443Z,100069.34
2022-09-26T21:58:40.293Z,100054.63
2022-09-26T22:01:10.113Z,100052.56
2022-09-26T22:03:38.508Z,100049.00
2022-09-26T22:06:07.484Z,100055.63
2022-09-26T22:08:34.232Z,100052.25
2022-09-26T22:11:04.316Z,100047.88
2022-09-26T22:13:34.918Z,100046.19
2022-09-26T22:16:12.079Z,100043.00
2022-09-26T22:18:40.127Z,100044.22
2022-09-26T22:21:08.494Z,100051.66
2022-09-26T22:23:35.982Z,100053.03
2022-09-26T22:26:03.510Z,100052.38
2022-09-26T22:28:30.199Z,100046.31
2022-09-26T22:31:01.189Z,100040.25
2022-09-26T22:33:27.897Z,100036.88
2022-09-26T22:35:54.461Z,100026.91
2022-09-26T22:38:20.967Z,100028.09
2022-09-26T22:40:59.012Z,100024.28
2022-09-26T22:43:26.420Z,100022.94
2022-09-26T22:45:53.163Z,100027.31
2022-09-26T22:48:19.827Z,100020.25
2022-09-26T22:50:46.492Z,100025.47
2022-09-26T22:53:13.003Z,100010.25
2022-09-26T22:55:39.664Z,100001.31
2022-09-26T22:58:06.169Z,99999.81
2022-09-26T23:00:32.644Z,99994.22
2022-09-26T23:02:59.176Z,100002.88
2022-09-26T23:05:25.700Z,100018.44
2022-09-26T23:07:55.203Z,100009.50
2022-09-26T23:10:22.311Z,99999.69
2022-09-26T23:12:50.626Z,99988.22
2022-09-26T23:15:18.332Z,99987.09
2022-09-26T23:17:44.869Z,99984.06
2022-09-26T23:20:11.569Z,99985.44
2022-09-26T23:22:39.739Z,99974.16
2022-09-26T23:25:07.210Z,99977.69
2022-09-26T23:27:33.853Z,99979.38
2022-09-26T23:30:00.358Z,99984.09
2022-09-26T23:32:26.991Z,99990.53
2022-09-26T23:34:53.484Z,99983.66
2022-09-26T23:37:20.009Z,99979.44
2022-09-26T23:39:46.659Z,99978.56
2022-09-26T23:42:13.472Z,99975.03
2022-09-26T23:44:40.013Z,99967.75
2022-09-26T23:47:06.528Z,99967.59
2022-09-26T23:49:33.073Z,99964.88
2022-09-26T23:51:59.718Z,99951.91
2022-09-26T23:54:26.257Z,99941.09
2022-09-26T23:56:52.781Z,99939.22
2022-09-26T23:59:19.313Z,99946.34
